sensor_id;sensor_type;location;lat;lon;timestamp;P1;durP1;ratioP1;P2;durP2;ratioP2
7831;SDS011;3961;42.058;25.586;2022-10-29T00:00:44;12.20;;;7.07;;
7831;SDS011;3961;42.058;25.586;2022-10-29T00:03:12;14.23;;;8.20;;
7831;SDS011;3961;42.058;25.586;2022-10-29T00:05:38;12.43;;;7.80;;
7831;SDS011;3961;42.058;25.586;2022-10-29T00:08:03;11.80;;;7.10;;
7831;SDS011;3961;42.058;25.586;2022-10-29T00:10:29;15.53;;;7.77;;
7831;SDS011;3961;42.058;25.586;2022-10-29T00:12:55;12.00;;;6.67;;
7831;SDS011;3961;42.058;25.586;2022-10-29T00:15:24;15.27;;;7.30;;
7831;SDS011;3961;42.058;25.586;2022-10-29T00:17:50;13.07;;;7.00;;
7831;SDS011;3961;42.058;25.586;2022-10-29T00:20:15;10.47;;;6.70;;
7831;SDS011;3961;42.058;25.586;2022-10-29T00:22:45;12.93;;;7.00;;
7831;SDS011;3961;42.058;25.586;2022-10-29T00:25:10;13.43;;;6.73;;
7831;SDS011;3961;42.058;25.586;2022-10-29T00:27:36;12.57;;;8.27;;
7831;SDS011;3961;42.058;25.586;2022-10-29T00:30:01;18.70;;;7.77;;
7831;SDS011;3961;42.058;25.586;2022-10-29T00:32:27;19.27;;;7.93;;
7831;SDS011;3961;42.058;25.586;2022-10-29T00:34:53;11.37;;;7.37;;
7831;SDS011;3961;42.058;25.586;2022-10-29T00:37:18;14.07;;;7.20;;
7831;SDS011;3961;42.058;25.586;2022-10-29T00:39:44;12.60;;;7.83;;
7831;SDS011;3961;42.058;25.586;2022-10-29T00:42:13;12.67;;;7.23;;
7831;SDS011;3961;42.058;25.586;2022-10-29T00:44:40;13.73;;;7.67;;
7831;SDS011;3961;42.058;25.586;2022-10-29T00:49:44;10.97;;;6.07;;
7831;SDS011;3961;42.058;25.586;2022-10-29T00:52:12;11.17;;;7.30;;
7831;SDS011;3961;42.058;25.586;2022-10-29T00:54:40;14.60;;;7.00;;
7831;SDS011;3961;42.058;25.586;2022-10-29T00:57:10;14.20;;;7.57;;
7831;SDS011;3961;42.058;25.586;2022-10-29T00:59:39;10.93;;;6.87;;
7831;SDS011;3961;42.058;25.586;2022-10-29T01:02:06;13.00;;;7.00;;
7831;SDS011;3961;42.058;25.586;2022-10-29T01:04:32;10.50;;;6.33;;
7831;SDS011;3961;42.058;25.586;2022-10-29T01:06:58;12.03;;;6.90;;
7831;SDS011;3961;42.058;25.586;2022-10-29T01:09:24;11.10;;;6.97;;
7831;SDS011;3961;42.058;25.586;2022-10-29T01:11:57;15.77;;;7.03;;
7831;SDS011;3961;42.058;25.586;2022-10-29T01:26:05;13.43;;;7.97;;
7831;SDS011;3961;42.058;25.586;2022-10-29T01:37:09;12.87;;;8.27;;
7831;SDS011;3961;42.058;25.586;2022-10-29T01:39:36;15.30;;;8.77;;
7831;SDS011;3961;42.058;25.586;2022-10-29T01:42:23;17.13;;;8.60;;
7831;SDS011;3961;42.058;25.586;2022-10-29T01:44:57;12.33;;;9.03;;
7831;SDS011;3961;42.058;25.586;2022-10-29T01:47:46;16.40;;;8.70;;
7831;SDS011;3961;42.058;25.586;2022-10-29T01:50:16;13.70;;;8.83;;
7831;SDS011;3961;42.058;25.586;2022-10-29T01:52:46;15.30;;;8.67;;
7831;SDS011;3961;42.058;25.586;2022-10-29T01:55:20;19.03;;;8.20;;
7831;SDS011;3961;42.058;25.586;2022-10-29T01:57:47;15.33;;;8.83;;
7831;SDS011;3961;42.058;25.586;2022-10-29T02:00:14;14.30;;;8.07;;
7831;SDS011;3961;42.058;25.586;2022-10-29T02:02:48;16.97;;;8.20;;
7831;SDS011;3961;42.058;25.586;2022-10-29T02:05:23;14.53;;;7.57;;
7831;SDS011;3961;42.058;25.586;2022-10-29T02:10:55;15.83;;;7.90;;
7831;SDS011;3961;42.058;25.586;2022-10-29T02:13:32;22.73;;;8.60;;
7831;SDS011;3961;42.058;25.586;2022-10-29T02:16:05;13.50;;;7.83;;
7831;SDS011;3961;42.058;25.586;2022-10-29T02:18:42;10.80;;;7.30;;
7831;SDS011;3961;42.058;25.586;2022-10-29T02:21:13;15.90;;;8.07;;
7831;SDS011;3961;42.058;25.586;2022-10-29T02:23:40;17.83;;;8.93;;
7831;SDS011;3961;42.058;25.586;2022-10-29T02:26:05;17.27;;;8.80;;
7831;SDS011;3961;42.058;25.586;2022-10-29T02:28:31;16.60;;;9.30;;
7831;SDS011;3961;42.058;25.586;2022-10-29T02:30:57;16.67;;;9.23;;
7831;SDS011;3961;42.058;25.586;2022-10-29T02:33:22;15.27;;;9.17;;
7831;SDS011;3961;42.058;25.586;2022-10-29T02:35:48;12.87;;;8.43;;
7831;SDS011;3961;42.058;25.586;2022-10-29T02:38:13;13.53;;;8.73;;
7831;SDS011;3961;42.058;25.586;2022-10-29T02:40:39;19.03;;;10.40;;
7831;SDS011;3961;42.058;25.586;2022-10-29T02:43:04;19.07;;;9.87;;
7831;SDS011;3961;42.058;25.586;2022-10-29T02:45:30;22.93;;;9.27;;
7831;SDS011;3961;42.058;25.586;2022-10-29T02:47:55;17.20;;;8.17;;
7831;SDS011;3961;42.058;25.586;2022-10-29T02:50:21;17.37;;;8.70;;
7831;SDS011;3961;42.058;25.586;2022-10-29T02:52:46;15.47;;;8.27;;
7831;SDS011;3961;42.058;25.586;2022-10-29T02:55:12;17.23;;;8.83;;
7831;SDS011;3961;42.058;25.586;2022-10-29T02:57:37;19.23;;;9.73;;
7831;SDS011;3961;42.058;25.586;2022-10-29T03:00:03;15.27;;;9.27;;
7831;SDS011;3961;42.058;25.586;2022-10-29T03:02:30;17.30;;;9.70;;
7831;SDS011;3961;42.058;25.586;2022-10-29T03:04:55;16.40;;;10.60;;
7831;SDS011;3961;42.058;25.586;2022-10-29T03:07:21;18.40;;;11.07;;
7831;SDS011;3961;42.058;25.586;2022-10-29T03:09:46;21.93;;;11.37;;
7831;SDS011;3961;42.058;25.586;2022-10-29T03:12:11;18.03;;;10.60;;
7831;SDS011;3961;42.058;25.586;2022-10-29T03:14:37;16.50;;;10.40;;
7831;SDS011;3961;42.058;25.586;2022-10-29T03:17:02;19.17;;;9.70;;
7831;SDS011;3961;42.058;25.586;2022-10-29T03:19:28;13.13;;;9.10;;
7831;SDS011;3961;42.058;25.586;2022-10-29T03:21:53;16.77;;;9.87;;
7831;SDS011;3961;42.058;25.586;2022-10-29T03:24:19;17.93;;;9.47;;
7831;SDS011;3961;42.058;25.586;2022-10-29T03:26:44;15.90;;;9.30;;
7831;SDS011;3961;42.058;25.586;2022-10-29T03:29:10;17.13;;;10.13;;
7831;SDS011;3961;42.058;25.586;2022-10-29T03:31:35;30.33;;;11.27;;
7831;SDS011;3961;42.058;25.586;2022-10-29T03:34:01;14.73;;;9.10;;
7831;SDS011;3961;42.058;25.586;2022-10-29T03:36:26;17.17;;;9.27;;
7831;SDS011;3961;42.058;25.586;2022-10-29T03:38:52;15.17;;;8.70;;
7831;SDS011;3961;42.058;25.586;2022-10-29T03:41:17;14.63;;;8.70;;
7831;SDS011;3961;42.058;25.586;2022-10-29T03:43:42;13.80;;;8.40;;
7831;SDS011;3961;42.058;25.586;2022-10-29T03:46:08;14.40;;;8.47;;
7831;SDS011;3961;42.058;25.586;2022-10-29T03:48:34;16.47;;;8.73;;
7831;SDS011;3961;42.058;25.586;2022-10-29T03:51:00;14.47;;;8.43;;
7831;SDS011;3961;42.058;25.586;2022-10-29T03:53:27;15.07;;;8.50;;
7831;SDS011;3961;42.058;25.586;2022-10-29T03:55:54;17.30;;;9.00;;
7831;SDS011;3961;42.058;25.586;2022-10-29T03:58:20;14.83;;;8.70;;
7831;SDS011;3961;42.058;25.586;2022-10-29T04:00:53;14.27;;;9.63;;
7831;SDS011;3961;42.058;25.586;2022-10-29T04:03:19;19.23;;;9.70;;
7831;SDS011;3961;42.058;25.586;2022-10-29T04:05:45;20.47;;;10.07;;
7831;SDS011;3961;42.058;25.586;2022-10-29T04:08:10;27.03;;;13.63;;
7831;SDS011;3961;42.058;25.586;2022-10-29T04:10:36;15.40;;;8.13;;
7831;SDS011;3961;42.058;25.586;2022-10-29T04:13:01;16.03;;;9.23;;
7831;SDS011;3961;42.058;25.586;2022-10-29T04:15:27;22.10;;;10.90;;
7831;SDS011;3961;42.058;25.586;2022-10-29T04:17:52;17.60;;;9.17;;
7831;SDS011;3961;42.058;25.586;2022-10-29T04:20:18;17.27;;;9.67;;
7831;SDS011;3961;42.058;25.586;2022-10-29T04:22:43;14.10;;;7.73;;
7831;SDS011;3961;42.058;25.586;2022-10-29T04:25:09;20.07;;;8.97;;
7831;SDS011;3961;42.058;25.586;2022-10-29T04:27:34;18.67;;;9.90;;
7831;SDS011;3961;42.058;25.586;2022-10-29T04:29:59;18.30;;;9.33;;
7831;SDS011;3961;42.058;25.586;2022-10-29T04:32:26;14.57;;;9.17;;
7831;SDS011;3961;42.058;25.586;2022-10-29T04:34:51;18.20;;;10.40;;
7831;SDS011;3961;42.058;25.586;2022-10-29T04:37:17;18.63;;;10.23;;
7831;SDS011;3961;42.058;25.586;2022-10-29T04:39:42;20.83;;;9.87;;
7831;SDS011;3961;42.058;25.586;2022-10-29T04:42:08;24.10;;;11.00;;
7831;SDS011;3961;42.058;25.586;2022-10-29T04:44:33;20.53;;;9.70;;
7831;SDS011;3961;42.058;25.586;2022-10-29T04:46:59;20.77;;;11.10;;
7831;SDS011;3961;42.058;25.586;2022-10-29T04:49:24;20.93;;;9.93;;
7831;SDS011;3961;42.058;25.586;2022-10-29T04:51:50;19.67;;;12.30;;
7831;SDS011;3961;42.058;25.586;2022-10-29T04:54:15;23.60;;;11.77;;
7831;SDS011;3961;42.058;25.586;2022-10-29T04:56:41;21.00;;;12.03;;
7831;SDS011;3961;42.058;25.586;2022-10-29T04:59:06;22.90;;;12.17;;
7831;SDS011;3961;42.058;25.586;2022-10-29T05:01:32;25.03;;;12.63;;
7831;SDS011;3961;42.058;25.586;2022-10-29T05:03:57;34.33;;;14.17;;
7831;SDS011;3961;42.058;25.586;2022-10-29T05:06:23;34.40;;;14.73;;
7831;SDS011;3961;42.058;25.586;2022-10-29T05:08:48;29.17;;;14.37;;
7831;SDS011;3961;42.058;25.586;2022-10-29T05:11:14;37.67;;;14.43;;
7831;SDS011;3961;42.058;25.586;2022-10-29T05:13:39;40.03;;;14.63;;
7831;SDS011;3961;42.058;25.586;2022-10-29T05:16:05;39.10;;;15.57;;
7831;SDS011;3961;42.058;25.586;2022-10-29T05:18:31;44.03;;;16.10;;
7831;SDS011;3961;42.058;25.586;2022-10-29T05:20:57;52.17;;;16.50;;
7831;SDS011;3961;42.058;25.586;2022-10-29T05:23:22;46.90;;;17.10;;
7831;SDS011;3961;42.058;25.586;2022-10-29T05:25:48;44.60;;;17.93;;
7831;SDS011;3961;42.058;25.586;2022-10-29T05:28:16;43.13;;;16.73;;
7831;SDS011;3961;42.058;25.586;2022-10-29T05:30:44;50.20;;;16.20;;
7831;SDS011;3961;42.058;25.586;2022-10-29T05:33:11;39.03;;;15.53;;
7831;SDS011;3961;42.058;25.586;2022-10-29T05:35:39;40.27;;;14.97;;
7831;SDS011;3961;42.058;25.586;2022-10-29T05:38:04;38.03;;;13.93;;
7831;SDS011;3961;42.058;25.586;2022-10-29T05:40:30;29.03;;;13.40;;
7831;SDS011;3961;42.058;25.586;2022-10-29T05:42:56;27.90;;;13.27;;
7831;SDS011;3961;42.058;25.586;2022-10-29T05:45:21;25.70;;;12.73;;
7831;SDS011;3961;42.058;25.586;2022-10-29T05:47:47;31.40;;;12.03;;
7831;SDS011;3961;42.058;25.586;2022-10-29T05:50:12;27.20;;;12.27;;
7831;SDS011;3961;42.058;25.586;2022-10-29T05:52:39;24.23;;;11.60;;
7831;SDS011;3961;42.058;25.586;2022-10-29T05:55:04;26.93;;;11.40;;
7831;SDS011;3961;42.058;25.586;2022-10-29T05:57:30;31.73;;;11.60;;
7831;SDS011;3961;42.058;25.586;2022-10-29T05:59:56;22.30;;;11.10;;
7831;SDS011;3961;42.058;25.586;2022-10-29T06:02:21;20.67;;;11.07;;
7831;SDS011;3961;42.058;25.586;2022-10-29T06:04:47;23.83;;;12.30;;
7831;SDS011;3961;42.058;25.586;2022-10-29T06:07:12;18.83;;;10.50;;
7831;SDS011;3961;42.058;25.586;2022-10-29T06:09:38;21.00;;;10.77;;
7831;SDS011;3961;42.058;25.586;2022-10-29T06:12:03;16.13;;;10.80;;
7831;SDS011;3961;42.058;25.586;2022-10-29T06:14:29;15.00;;;10.53;;
7831;SDS011;3961;42.058;25.586;2022-10-29T06:16:54;18.27;;;10.97;;
7831;SDS011;3961;42.058;25.586;2022-10-29T06:19:20;22.20;;;10.53;;
7831;SDS011;3961;42.058;25.586;2022-10-29T06:21:45;18.27;;;10.57;;
7831;SDS011;3961;42.058;25.586;2022-10-29T06:24:11;19.87;;;11.00;;
7831;SDS011;3961;42.058;25.586;2022-10-29T06:26:38;24.13;;;10.57;;
7831;SDS011;3961;42.058;25.586;2022-10-29T06:29:04;21.00;;;11.47;;
7831;SDS011;3961;42.058;25.586;2022-10-29T06:31:29;20.97;;;10.97;;
7831;SDS011;3961;42.058;25.586;2022-10-29T06:33:55;18.00;;;10.33;;
7831;SDS011;3961;42.058;25.586;2022-10-29T06:36:21;14.90;;;9.27;;
7831;SDS011;3961;42.058;25.586;2022-10-29T06:38:47;18.33;;;10.07;;
7831;SDS011;3961;42.058;25.586;2022-10-29T06:41:12;18.37;;;10.10;;
7831;SDS011;3961;42.058;25.586;2022-10-29T06:43:38;20.23;;;10.53;;
7831;SDS011;3961;42.058;25.586;2022-10-29T06:46:04;19.07;;;11.20;;
7831;SDS011;3961;42.058;25.586;2022-10-29T06:48:29;18.70;;;11.40;;
7831;SDS011;3961;42.058;25.586;2022-10-29T06:50:56;23.00;;;12.67;;
7831;SDS011;3961;42.058;25.586;2022-10-29T06:53:23;20.10;;;12.23;;
7831;SDS011;3961;42.058;25.586;2022-10-29T06:55:49;22.17;;;12.70;;
7831;SDS011;3961;42.058;25.586;2022-10-29T06:58:15;24.33;;;13.43;;
7831;SDS011;3961;42.058;25.586;2022-10-29T07:00:42;27.00;;;14.83;;
7831;SDS011;3961;42.058;25.586;2022-10-29T07:03:15;30.50;;;16.67;;
7831;SDS011;3961;42.058;25.586;2022-10-29T07:05:42;32.50;;;17.03;;
7831;SDS011;3961;42.058;25.586;2022-10-29T07:08:08;32.90;;;16.97;;
7831;SDS011;3961;42.058;25.586;2022-10-29T07:10:35;38.57;;;18.67;;
7831;SDS011;3961;42.058;25.586;2022-10-29T07:13:01;34.87;;;16.67;;
7831;SDS011;3961;42.058;25.586;2022-10-29T07:15:27;36.97;;;17.93;;
7831;SDS011;3961;42.058;25.586;2022-10-29T07:17:57;35.97;;;17.33;;
7831;SDS011;3961;42.058;25.586;2022-10-29T07:20:27;32.80;;;16.87;;
7831;SDS011;3961;42.058;25.586;2022-10-29T07:22:54;39.13;;;17.37;;
7831;SDS011;3961;42.058;25.586;2022-10-29T07:25:21;36.73;;;17.87;;
7831;SDS011;3961;42.058;25.586;2022-10-29T07:27:47;36.97;;;18.93;;
7831;SDS011;3961;42.058;25.586;2022-10-29T07:30:12;37.43;;;18.13;;
7831;SDS011;3961;42.058;25.586;2022-10-29T07:32:38;38.70;;;18.20;;
7831;SDS011;3961;42.058;25.586;2022-10-29T07:35:03;39.37;;;17.37;;
7831;SDS011;3961;42.058;25.586;2022-10-29T07:37:29;39.13;;;17.30;;
7831;SDS011;3961;42.058;25.586;2022-10-29T07:39:55;40.87;;;17.50;;
7831;SDS011;3961;42.058;25.586;2022-10-29T07:42:20;38.90;;;18.43;;
7831;SDS011;3961;42.058;25.586;2022-10-29T07:44:46;38.90;;;16.57;;
7831;SDS011;3961;42.058;25.586;2022-10-29T07:47:11;39.20;;;17.17;;
7831;SDS011;3961;42.058;25.586;2022-10-29T07:49:36;41.67;;;18.07;;
7831;SDS011;3961;42.058;25.586;2022-10-29T07:52:02;35.90;;;17.20;;
7831;SDS011;3961;42.058;25.586;2022-10-29T07:54:28;34.33;;;16.80;;
7831;SDS011;3961;42.058;25.586;2022-10-29T07:56:53;37.80;;;17.63;;
7831;SDS011;3961;42.058;25.586;2022-10-29T07:59:19;31.13;;;15.90;;
7831;SDS011;3961;42.058;25.586;2022-10-29T08:01:44;35.00;;;15.67;;
7831;SDS011;3961;42.058;25.586;2022-10-29T08:04:10;32.10;;;15.70;;
7831;SDS011;3961;42.058;25.586;2022-10-29T08:06:36;25.37;;;14.13;;
7831;SDS011;3961;42.058;25.586;2022-10-29T08:09:02;31.67;;;13.70;;
7831;SDS011;3961;42.058;25.586;2022-10-29T08:11:27;32.20;;;12.73;;
7831;SDS011;3961;42.058;25.586;2022-10-29T08:13:55;27.90;;;12.93;;
7831;SDS011;3961;42.058;25.586;2022-10-29T08:16:21;26.93;;;13.37;;
7831;SDS011;3961;42.058;25.586;2022-10-29T08:18:46;31.73;;;14.07;;
7831;SDS011;3961;42.058;25.586;2022-10-29T08:21:12;27.87;;;12.00;;
7831;SDS011;3961;42.058;25.586;2022-10-29T08:23:37;18.97;;;8.60;;
7831;SDS011;3961;42.058;25.586;2022-10-29T08:26:03;30.10;;;8.67;;
7831;SDS011;3961;42.058;25.586;2022-10-29T08:28:28;20.47;;;9.53;;
7831;SDS011;3961;42.058;25.586;2022-10-29T08:30:54;22.33;;;9.27;;
7831;SDS011;3961;42.058;25.586;2022-10-29T08:33:20;22.80;;;9.87;;
7831;SDS011;3961;42.058;25.586;2022-10-29T08:35:45;21.07;;;9.40;;
7831;SDS011;3961;42.058;25.586;2022-10-29T08:38:11;21.13;;;8.90;;
7831;SDS011;3961;42.058;25.586;2022-10-29T08:46:20;17.80;;;8.73;;
7831;SDS011;3961;42.058;25.586;2022-10-29T08:48:55;20.93;;;9.17;;
7831;SDS011;3961;42.058;25.586;2022-10-29T08:51:27;14.43;;;8.63;;
7831;SDS011;3961;42.058;25.586;2022-10-29T08:53:55;23.17;;;9.03;;
7831;SDS011;3961;42.058;25.586;2022-10-29T08:56:27;19.00;;;10.03;;
7831;SDS011;3961;42.058;25.586;2022-10-29T09:01:36;19.37;;;9.10;;
7831;SDS011;3961;42.058;25.586;2022-10-29T09:04:02;19.70;;;8.47;;
7831;SDS011;3961;42.058;25.586;2022-10-29T09:06:46;21.10;;;9.37;;
7831;SDS011;3961;42.058;25.586;2022-10-29T09:09:30;15.30;;;8.23;;
7831;SDS011;3961;42.058;25.586;2022-10-29T09:12:11;17.80;;;8.37;;
7831;SDS011;3961;42.058;25.586;2022-10-29T09:17:58;16.17;;;7.50;;
7831;SDS011;3961;42.058;25.586;2022-10-29T09:20:58;18.70;;;8.47;;
7831;SDS011;3961;42.058;25.586;2022-10-29T09:23:54;19.53;;;8.50;;
7831;SDS011;3961;42.058;25.586;2022-10-29T09:26:41;17.63;;;7.90;;
7831;SDS011;3961;42.058;25.586;2022-10-29T09:32:15;16.83;;;8.53;;
7831;SDS011;3961;42.058;25.586;2022-10-29T09:34:50;18.17;;;7.77;;
7831;SDS011;3961;42.058;25.586;2022-10-29T09:39:54;18.27;;;7.83;;
7831;SDS011;3961;42.058;25.586;2022-10-29T09:42:25;16.73;;;7.87;;
7831;SDS011;3961;42.058;25.586;2022-10-29T09:45:03;20.91;;;8.34;;
7831;SDS011;3961;42.058;25.586;2022-10-29T09:47:37;16.97;;;7.40;;
7831;SDS011;3961;42.058;25.586;2022-10-29T09:50:31;17.57;;;7.87;;
7831;SDS011;3961;42.058;25.586;2022-10-29T09:53:06;20.57;;;8.27;;
7831;SDS011;3961;42.058;25.586;2022-10-29T09:55:37;15.53;;;8.17;;
7831;SDS011;3961;42.058;25.586;2022-10-29T09:58:04;19.20;;;7.87;;
7831;SDS011;3961;42.058;25.586;2022-10-29T10:00:31;13.53;;;7.20;;
7831;SDS011;3961;42.058;25.586;2022-10-29T10:03:02;18.57;;;8.03;;
7831;SDS011;3961;42.058;25.586;2022-10-29T10:05:53;19.57;;;7.93;;
7831;SDS011;3961;42.058;25.586;2022-10-29T10:08:21;23.37;;;8.47;;
7831;SDS011;3961;42.058;25.586;2022-10-29T10:10:51;34.03;;;9.27;;
7831;SDS011;3961;42.058;25.586;2022-10-29T10:13:19;15.87;;;7.67;;
7831;SDS011;3961;42.058;25.586;2022-10-29T10:15:52;15.80;;;7.20;;
7831;SDS011;3961;42.058;25.586;2022-10-29T10:18:24;13.90;;;7.40;;
7831;SDS011;3961;42.058;25.586;2022-10-29T10:21:02;13.33;;;7.00;;
7831;SDS011;3961;42.058;25.586;2022-10-29T10:23:38;13.93;;;6.70;;
7831;SDS011;3961;42.058;25.586;2022-10-29T10:26:25;11.57;;;6.20;;
7831;SDS011;3961;42.058;25.586;2022-10-29T10:29:19;13.33;;;6.67;;
7831;SDS011;3961;42.058;25.586;2022-10-29T10:32:09;15.83;;;7.27;;
7831;SDS011;3961;42.058;25.586;2022-10-29T10:34:35;20.87;;;6.50;;
7831;SDS011;3961;42.058;25.586;2022-10-29T10:42:04;11.90;;;5.77;;
7831;SDS011;3961;42.058;25.586;2022-10-29T10:44:47;8.73;;;5.27;;
7831;SDS011;3961;42.058;25.586;2022-10-29T10:47:21;11.43;;;5.90;;
7831;SDS011;3961;42.058;25.586;2022-10-29T10:49:51;12.03;;;5.43;;
7831;SDS011;3961;42.058;25.586;2022-10-29T10:52:18;12.03;;;5.40;;
7831;SDS011;3961;42.058;25.586;2022-10-29T10:54:54;15.10;;;5.57;;
7831;SDS011;3961;42.058;25.586;2022-10-29T10:57:28;14.87;;;5.70;;
7831;SDS011;3961;42.058;25.586;2022-10-29T11:00:05;9.53;;;5.37;;
7831;SDS011;3961;42.058;25.586;2022-10-29T11:05:16;11.83;;;4.93;;
7831;SDS011;3961;42.058;25.586;2022-10-29T11:08:02;9.03;;;4.53;;
7831;SDS011;3961;42.058;25.586;2022-10-29T11:13:20;9.30;;;4.03;;
7831;SDS011;3961;42.058;25.586;2022-10-29T11:15:55;8.27;;;4.43;;
7831;SDS011;3961;42.058;25.586;2022-10-29T11:19:19;6.60;;;4.40;;
7831;SDS011;3961;42.058;25.586;2022-10-29T11:21:34;7.27;;;4.17;;
7831;SDS011;3961;42.058;25.586;2022-10-29T11:26:54;7.20;;;4.23;;
7831;SDS011;3961;42.058;25.586;2022-10-29T11:40:48;8.77;;;4.30;;
7831;SDS011;3961;42.058;25.586;2022-10-29T11:43:19;9.03;;;4.23;;
7831;SDS011;3961;42.058;25.586;2022-10-29T11:57:31;5.43;;;3.90;;
7831;SDS011;3961;42.058;25.586;2022-10-29T12:02:39;7.13;;;3.83;;
7831;SDS011;3961;42.058;25.586;2022-10-29T12:05:35;6.80;;;3.67;;
7831;SDS011;3961;42.058;25.586;2022-10-29T12:14:20;6.50;;;3.50;;
7831;SDS011;3961;42.058;25.586;2022-10-29T12:19:42;5.57;;;3.97;;
7831;SDS011;3961;42.058;25.586;2022-10-29T12:30:21;7.57;;;3.93;;
7831;SDS011;3961;42.058;25.586;2022-10-29T12:40:51;8.57;;;3.40;;
7831;SDS011;3961;42.058;25.586;2022-10-29T12:56:26;6.57;;;3.50;;
7831;SDS011;3961;42.058;25.586;2022-10-29T12:58:57;5.23;;;3.30;;
7831;SDS011;3961;42.058;25.586;2022-10-29T13:01:52;8.47;;;3.90;;
7831;SDS011;3961;42.058;25.586;2022-10-29T13:04:28;5.43;;;3.27;;
7831;SDS011;3961;42.058;25.586;2022-10-29T13:07:04;6.17;;;3.50;;
7831;SDS011;3961;42.058;25.586;2022-10-29T13:09:43;7.33;;;3.60;;
7831;SDS011;3961;42.058;25.586;2022-10-29T13:12:09;7.30;;;3.27;;
7831;SDS011;3961;42.058;25.586;2022-10-29T13:14:48;7.00;;;3.90;;
7831;SDS011;3961;42.058;25.586;2022-10-29T13:20:00;5.60;;;3.20;;
7831;SDS011;3961;42.058;25.586;2022-10-29T13:28:00;13.13;;;3.60;;
7831;SDS011;3961;42.058;25.586;2022-10-29T13:30:46;14.13;;;4.90;;
7831;SDS011;3961;42.058;25.586;2022-10-29T13:38:17;6.50;;;3.53;;
7831;SDS011;3961;42.058;25.586;2022-10-29T13:43:18;7.93;;;3.33;;
7831;SDS011;3961;42.058;25.586;2022-10-29T13:45:51;6.03;;;3.70;;
7831;SDS011;3961;42.058;25.586;2022-10-29T13:48:30;4.93;;;2.90;;
7831;SDS011;3961;42.058;25.586;2022-10-29T13:51:02;9.70;;;3.70;;
7831;SDS011;3961;42.058;25.586;2022-10-29T13:53:42;5.67;;;3.50;;
7831;SDS011;3961;42.058;25.586;2022-10-29T13:59:15;7.17;;;3.70;;
7831;SDS011;3961;42.058;25.586;2022-10-29T14:01:59;5.73;;;3.80;;
7831;SDS011;3961;42.058;25.586;2022-10-29T14:04:36;7.70;;;3.40;;
7831;SDS011;3961;42.058;25.586;2022-10-29T14:07:09;5.23;;;2.73;;
7831;SDS011;3961;42.058;25.586;2022-10-29T14:09:42;6.40;;;3.43;;
7831;SDS011;3961;42.058;25.586;2022-10-29T14:12:14;5.97;;;3.30;;
7831;SDS011;3961;42.058;25.586;2022-10-29T14:17:34;12.13;;;5.90;;
7831;SDS011;3961;42.058;25.586;2022-10-29T14:20:00;9.57;;;5.17;;
7831;SDS011;3961;42.058;25.586;2022-10-29T14:24:54;47.87;;;7.40;;
7831;SDS011;3961;42.058;25.586;2022-10-29T14:27:20;8.80;;;5.00;;
7831;SDS011;3961;42.058;25.586;2022-10-29T14:29:46;9.70;;;5.50;;
7831;SDS011;3961;42.058;25.586;2022-10-29T14:32:16;9.47;;;5.73;;
7831;SDS011;3961;42.058;25.586;2022-10-29T14:34:44;8.50;;;4.53;;
7831;SDS011;3961;42.058;25.586;2022-10-29T14:37:16;11.80;;;6.37;;
7831;SDS011;3961;42.058;25.586;2022-10-29T14:39:43;12.97;;;6.10;;
7831;SDS011;3961;42.058;25.586;2022-10-29T14:42:17;7.03;;;4.83;;
7831;SDS011;3961;42.058;25.586;2022-10-29T14:44:48;9.30;;;5.43;;
7831;SDS011;3961;42.058;25.586;2022-10-29T14:47:24;11.00;;;5.23;;
7831;SDS011;3961;42.058;25.586;2022-10-29T14:50:02;9.07;;;5.00;;
7831;SDS011;3961;42.058;25.586;2022-10-29T14:55:13;14.23;;;7.37;;
7831;SDS011;3961;42.058;25.586;2022-10-29T14:57:44;18.03;;;8.10;;
7831;SDS011;3961;42.058;25.586;2022-10-29T15:00:23;19.63;;;8.80;;
7831;SDS011;3961;42.058;25.586;2022-10-29T15:02:51;19.37;;;8.20;;
7831;SDS011;3961;42.058;25.586;2022-10-29T15:05:25;15.37;;;7.37;;
7831;SDS011;3961;42.058;25.586;2022-10-29T15:08:02;15.17;;;6.30;;
7831;SDS011;3961;42.058;25.586;2022-10-29T15:10:48;27.03;;;7.53;;
7831;SDS011;3961;42.058;25.586;2022-10-29T15:16:08;18.63;;;8.87;;
7831;SDS011;3961;42.058;25.586;2022-10-29T15:18:45;18.37;;;8.10;;
7831;SDS011;3961;42.058;25.586;2022-10-29T15:21:18;12.10;;;6.77;;
7831;SDS011;3961;42.058;25.586;2022-10-29T15:23:46;18.07;;;7.50;;
7831;SDS011;3961;42.058;25.586;2022-10-29T15:26:16;15.57;;;7.57;;
7831;SDS011;3961;42.058;25.586;2022-10-29T15:28:48;12.10;;;7.47;;
7831;SDS011;3961;42.058;25.586;2022-10-29T15:33:46;12.27;;;5.97;;
7831;SDS011;3961;42.058;25.586;2022-10-29T15:36:15;11.40;;;6.23;;
7831;SDS011;3961;42.058;25.586;2022-10-29T15:41:44;20.77;;;8.73;;
7831;SDS011;3961;42.058;25.586;2022-10-29T15:46:57;19.53;;;7.53;;
7831;SDS011;3961;42.058;25.586;2022-10-29T15:49:24;24.43;;;7.87;;
7831;SDS011;3961;42.058;25.586;2022-10-29T15:51:51;21.97;;;8.87;;
7831;SDS011;3961;42.058;25.586;2022-10-29T15:54:18;23.23;;;8.97;;
7831;SDS011;3961;42.058;25.586;2022-10-29T15:56:44;23.17;;;9.40;;
7831;SDS011;3961;42.058;25.586;2022-10-29T15:59:10;20.00;;;8.97;;
7831;SDS011;3961;42.058;25.586;2022-10-29T16:01:38;23.17;;;9.47;;
7831;SDS011;3961;42.058;25.586;2022-10-29T16:04:03;39.57;;;10.03;;
7831;SDS011;3961;42.058;25.586;2022-10-29T16:06:29;27.50;;;9.90;;
7831;SDS011;3961;42.058;25.586;2022-10-29T16:08:55;26.97;;;9.70;;
7831;SDS011;3961;42.058;25.586;2022-10-29T16:11:22;25.10;;;9.83;;
7831;SDS011;3961;42.058;25.586;2022-10-29T16:13:49;18.33;;;8.30;;
7831;SDS011;3961;42.058;25.586;2022-10-29T16:16:16;32.87;;;11.20;;
7831;SDS011;3961;42.058;25.586;2022-10-29T16:18:43;27.20;;;10.27;;
7831;SDS011;3961;42.058;25.586;2022-10-29T16:21:14;24.40;;;9.87;;
7831;SDS011;3961;42.058;25.586;2022-10-29T16:23:43;22.27;;;10.50;;
7831;SDS011;3961;42.058;25.586;2022-10-29T16:26:13;31.17;;;9.73;;
7831;SDS011;3961;42.058;25.586;2022-10-29T16:28:41;20.00;;;10.43;;
7831;SDS011;3961;42.058;25.586;2022-10-29T16:33:47;31.83;;;13.73;;
7831;SDS011;3961;42.058;25.586;2022-10-29T16:36:14;28.30;;;12.03;;
7831;SDS011;3961;42.058;25.586;2022-10-29T16:38:39;30.73;;;12.10;;
7831;SDS011;3961;42.058;25.586;2022-10-29T16:41:05;24.17;;;11.37;;
7831;SDS011;3961;42.058;25.586;2022-10-29T16:43:31;29.83;;;11.57;;
7831;SDS011;3961;42.058;25.586;2022-10-29T16:45:56;23.00;;;10.90;;
7831;SDS011;3961;42.058;25.586;2022-10-29T16:48:22;23.87;;;11.27;;
7831;SDS011;3961;42.058;25.586;2022-10-29T16:50:47;29.50;;;10.50;;
7831;SDS011;3961;42.058;25.586;2022-10-29T16:53:13;26.77;;;12.87;;
7831;SDS011;3961;42.058;25.586;2022-10-29T16:55:39;39.00;;;12.60;;
7831;SDS011;3961;42.058;25.586;2022-10-29T16:58:05;31.93;;;12.77;;
7831;SDS011;3961;42.058;25.586;2022-10-29T17:00:35;23.60;;;10.37;;
7831;SDS011;3961;42.058;25.586;2022-10-29T17:03:04;26.63;;;11.80;;
7831;SDS011;3961;42.058;25.586;2022-10-29T17:05:29;27.97;;;12.53;;
7831;SDS011;3961;42.058;25.586;2022-10-29T17:07:59;28.47;;;12.13;;
7831;SDS011;3961;42.058;25.586;2022-10-29T17:10:24;25.70;;;12.00;;
7831;SDS011;3961;42.058;25.586;2022-10-29T17:12:50;26.67;;;11.53;;
7831;SDS011;3961;42.058;25.586;2022-10-29T17:15:16;27.20;;;11.93;;
7831;SDS011;3961;42.058;25.586;2022-10-29T17:17:42;34.53;;;14.93;;
7831;SDS011;3961;42.058;25.586;2022-10-29T17:20:07;35.90;;;12.80;;
7831;SDS011;3961;42.058;25.586;2022-10-29T17:22:33;32.67;;;14.63;;
7831;SDS011;3961;42.058;25.586;2022-10-29T17:24:59;31.00;;;13.97;;
7831;SDS011;3961;42.058;25.586;2022-10-29T17:27:24;30.23;;;12.30;;
7831;SDS011;3961;42.058;25.586;2022-10-29T17:29:50;25.03;;;12.93;;
7831;SDS011;3961;42.058;25.586;2022-10-29T17:32:16;32.07;;;13.73;;
7831;SDS011;3961;42.058;25.586;2022-10-29T17:34:41;30.43;;;14.23;;
7831;SDS011;3961;42.058;25.586;2022-10-29T17:37:07;32.87;;;14.07;;